Time;durP1;ratioP1;P1;durP2;ratioP2;P2;SDS_P1;SDS_P2;PMS_P1;PMS_P2;Temp;Humidity;BMP_temperature;BMP_pressure;BME280_temperature;BME280_humidity;BME280_pressure;Samples;Min_cycle;Max_cycle;Signal;HPM_P1;HPM_P2
2022/05/06 00:00:11;;;;;;;22.55;14.80;;;;;;;24.04;39.09;100059.53;347702;28;1276;-72
2022/05/06 00:00:23;;;;;;;22.30;14.50;;;;;;;24.04;39.02;100064.84;347534;28;1032;-72
2022/05/06 00:00:37;;;;;;;23.60;14.60;;;;;;;24.03;39.13;100061.34;347493;28;1345;-71
2022/05/06 00:00:49;;;;;;;23.27;14.85;;;;;;;24.06;38.98;100060.25;347509;28;1055;-71
2022/05/06 00:01:01;;;;;;;23.05;15.05;;;;;;;24.09;38.86;100062.66;347570;28;1116;-71
2022/05/06 00:01:13;;;;;;;22.83;15.27;;;;;;;24.12;38.70;100062.38;347565;28;2222;-71
2022/05/06 00:01:25;;;;;;;23.10;14.40;;;;;;;24.09;38.77;100062.66;346734;28;2203;-71
2022/05/06 00:01:38;;;;;;;26.13;14.80;;;;;;;24.03;38.79;100061.34;347577;28;1300;-71
2022/05/06 00:01:51;;;;;;;26.52;15.23;;;;;;;23.97;38.83;100063.66;347534;28;1072;-71
2022/05/06 00:02:05;;;;;;;22.77;15.30;;;;;;;23.90;39.18;100058.00;347633;28;1203;-71
2022/05/06 00:02:17;;;;;;;23.90;15.45;;;;;;;23.80;39.12;100063.22;346298;28;908;-71
2022/05/06 00:02:34;;;;;;;27.38;15.88;;;;;;;23.84;38.91;100069.13;348936;28;1602;-71
2022/05/06 00:02:46;;;;;;;26.58;16.02;;;;;;;23.82;39.58;100060.44;348953;28;1077;-71
2022/05/06 00:02:58;;;;;;;26.58;16.05;;;;;;;23.81;39.27;100059.59;349078;28;1121;-71
2022/05/06 00:03:10;;;;;;;28.40;16.00;;;;;;;23.79;39.34;100056.22;349053;28;1078;-71
2022/05/06 00:03:22;;;;;;;28.17;15.98;;;;;;;23.82;39.18;100063.94;349141;28;1238;-71
2022/05/06 00:03:37;;;;;;;24.52;15.57;;;;;;;23.86;39.29;100052.09;346243;28;1596;-71
2022/05/06 00:03:49;;;;;;;23.83;15.32;;;;;;;23.88;39.17;100059.94;346886;28;1512;-71
2022/05/06 00:04:03;;;;;;;24.10;15.38;;;;;;;23.95;39.04;100055.00;346326;28;1097;-72
2022/05/06 00:04:15;;;;;;;24.92;15.45;;;;;;;23.92;39.04;100061.38;346431;28;2068;-72
2022/05/06 00:04:27;;;;;;;24.00;15.38;;;;;;;23.92;39.07;100062.25;346140;28;1701;-71
2022/05/06 00:04:39;;;;;;;25.92;15.60;;;;;;;23.85;39.06;100065.50;346266;28;1022;-71
2022/05/06 00:04:51;;;;;;;28.08;16.05;;;;;;;23.85;39.06;100055.72;345987;28;1094;-73
2022/05/06 00:05:05;;;;;;;27.27;16.27;;;;;;;23.82;39.34;100065.75;345772;28;1628;-74
2022/05/06 00:05:17;;;;;;;26.40;15.90;;;;;;;23.74;39.25;100061.03;346229;28;1766;-73
2022/05/06 00:05:30;;;;;;;23.95;15.52;;;;;;;23.73;39.40;100059.34;346210;28;2004;-73
2022/05/06 00:05:42;;;;;;;26.50;15.63;;;;;;;23.80;39.12;100067.69;346424;28;1903;-73
2022/05/06 00:05:54;;;;;;;26.98;15.77;;;;;;;23.77;39.25;100063.47;347775;28;1591;-74
2022/05/06 00:06:07;;;;;;;27.60;16.25;;;;;;;23.81;39.42;100066.72;346833;28;1920;-73
2022/05/06 00:06:20;;;;;;;25.85;16.13;;;;;;;23.86;39.37;100065.38;345278;28;1872;-73
2022/05/06 00:06:32;;;;;;;24.58;15.80;;;;;;;23.91;39.05;100065.84;344352;28;1881;-73
2022/05/06 00:06:44;;;;;;;23.55;15.48;;;;;;;23.86;39.17;100068.03;345120;28;1151;-73
2022/05/06 00:06:56;;;;;;;26.48;15.70;;;;;;;23.87;39.43;100059.09;344815;28;1334;-73
2022/05/06 00:07:12;;;;;;;28.30;15.82;;;;;;;23.93;39.41;100063.06;345204;28;1743;-73
2022/05/06 00:07:24;;;;;;;27.77;15.95;;;;;;;23.95;39.50;100068.25;345806;28;1976;-74
2022/05/06 00:07:36;;;;;;;26.23;16.02;;;;;;;23.97;39.00;100063.66;344875;28;1051;-73
2022/05/06 00:07:48;;;;;;;25.55;16.58;;;;;;;23.96;38.98;100061.97;344749;28;1338;-72
2022/05/06 00:08:00;;;;;;;25.05;16.67;;;;;;;23.97;38.95;100059.19;344588;28;2259;-72
2022/05/06 00:08:13;;;;;;;25.27;16.08;;;;;;;23.97;39.20;100063.66;344581;28;1620;-72
2022/05/06 00:08:25;;;;;;;24.77;15.48;;;;;;;23.72;39.52;100065.63;345860;28;1956;-71
2022/05/06 00:08:37;;;;;;;25.33;15.75;;;;;;;23.63;39.36;100061.06;346196;28;1268;-71
2022/05/06 00:08:49;;;;;;;26.23;15.73;;;;;;;23.63;39.56;100069.03;346386;28;1308;-71
2022/05/06 00:09:03;;;;;;;26.30;16.15;;;;;;;23.55;39.63;100063.50;346153;28;1058;-71
2022/05/06 00:09:15;;;;;;;25.10;16.30;;;;;;;23.48;39.90;100069.31;345059;28;1815;-71
2022/05/06 00:09:27;;;;;;;24.85;16.10;;;;;;;23.60;39.57;100066.63;345293;28;4312;-71
2022/05/06 00:09:41;;;;;;;24.40;15.73;;;;;;;23.57;39.49;100066.88;346363;28;1212;-71
2022/05/06 00:09:53;;;;;;;24.42;15.32;;;;;;;23.41;40.19;100068.09;345187;28;1898;-72
2022/05/06 00:10:07;;;;;;;25.48;15.32;;;;;;;23.46;39.95;100063.28;345876;28;1805;-73
2022/05/06 00:10:19;;;;;;;25.83;16.00;;;;;;;23.42;40.21;100064.50;344679;28;1279;-72
2022/05/06 00:10:31;;;;;;;26.58;16.35;;;;;;;23.39;39.93;100064.72;345606;28;1259;-73
2022/05/06 00:10:44;;;;;;;27.98;16.30;;;;;;;23.37;40.01;100066.66;346025;28;1149;-71
2022/05/06 00:10:56;;;;;;;28.02;15.77;;;;;;;23.29;40.43;100064.59;346346;28;1054;-71
2022/05/06 00:11:07;;;;;;;26.80;15.57;;;;;;;23.33;40.31;100059.91;344266;28;1944;-72
2022/05/06 00:11:20;;;;;;;24.63;15.38;;;;;;;23.40;40.19;100063.78;345671;28;1850;-72
2022/05/06 00:11:33;;;;;;;26.45;15.88;;;;;;;23.44;39.87;100065.22;343700;28;1340;-72
2022/05/06 00:11:45;;;;;;;25.57;15.60;;;;;;;23.53;40.03;100067.09;343733;28;2099;-72
2022/05/06 00:11:57;;;;;;;23.85;15.55;;;;;;;23.51;39.94;100062.91;343685;28;2057;-72
2022/05/06 00:12:10;;;;;;;24.50;15.90;;;;;;;23.45;40.30;100064.22;342891;28;1738;-71
2022/05/06 00:12:23;;;;;;;25.92;16.40;;;;;;;23.54;39.99;100062.63;344517;28;1961;-71
2022/05/06 00:12:35;;;;;;;26.08;15.95;;;;;;;23.55;39.97;100066.16;345022;28;1303;-71
2022/05/06 00:12:47;;;;;;;25.10;15.77;;;;;;;23.57;39.59;100061.56;345120;28;1189;-71
2022/05/06 00:12:59;;;;;;;26.25;15.73;;;;;;;23.59;40.00;100072.91;344583;28;1067;-71
2022/05/06 00:13:11;;;;;;;26.90;15.90;;;;;;;23.53;40.05;100067.09;344204;28;1811;-71
2022/05/06 00:13:23;;;;;;;26.33;16.30;;;;;;;23.48;39.71;100074.63;345267;28;1923;-71
2022/05/06 00:13:35;;;;;;;25.50;16.52;;;;;;;23.40;40.21;100061.13;345460;28;1079;-72
2022/05/06 00:13:47;;;;;;;26.67;16.52;;;;;;;23.42;39.86;100069.78;346075;28;1062;-73
2022/05/06 00:14:00;;;;;;;26.73;16.23;;;;;;;23.44;40.03;100067.88;346402;28;1301;-73
2022/05/06 00:14:12;;;;;;;26.48;16.27;;;;;;;23.43;39.71;100066.16;345744;28;1894;-74
2022/05/06 00:14:24;;;;;;;26.20;15.95;;;;;;;23.49;40.12;100073.63;346718;28;1904;-74
2022/05/06 00:14:36;;;;;;;24.90;15.95;;;;;;;23.56;39.85;100065.16;346753;28;1209;-74
2022/05/06 00:14:48;;;;;;;24.13;15.68;;;;;;;23.61;39.82;100068.31;347571;28;1318;-74
2022/05/06 00:15:00;;;;;;;23.77;14.95;;;;;;;23.68;39.46;100061.53;347394;28;1280;-74
2022/05/06 00:15:13;;;;;;;24.75;14.98;;;;;;;23.71;39.59;100069.25;345456;28;1903;-71
2022/05/06 00:15:25;;;;;;;24.02;14.93;;;;;;;23.67;39.84;100067.81;346066;28;1834;-71
2022/05/06 00:15:38;;;;;;;25.50;15.65;;;;;;;23.63;39.36;100069.88;346289;28;1716;-72
2022/05/06 00:15:50;;;;;;;24.95;15.45;;;;;;;23.64;39.30;100068.06;345258;28;1910;-72
2022/05/06 00:16:03;;;;;;;25.60;15.35;;;;;;;23.59;39.45;100072.91;345799;28;1946;-72
2022/05/06 00:16:18;;;;;;;25.38;15.68;;;;;;;23.62;39.78;100068.16;347005;28;1901;-72
2022/05/06 00:16:30;;;;;;;26.25;15.68;;;;;;;23.67;39.57;100067.81;347213;28;1719;-72
2022/05/06 00:16:42;;;;;;;25.95;15.63;;;;;;;23.73;39.30;100069.97;346444;28;1273;-72
2022/05/06 00:16:54;;;;;;;24.27;15.93;;;;;;;23.74;39.09;100074.31;346188;28;1035;-72
2022/05/06 00:17:07;;;;;;;24.67;15.82;;;;;;;23.76;39.29;100067.06;345863;28;1907;-72
2022/05/06 00:17:18;;;;;;;24.38;15.75;;;;;;;23.81;39.29;100072.88;346291;28;1677;-74
2022/05/06 00:17:31;;;;;;;22.98;15.82;;;;;;;23.81;39.07;100070.22;346994;28;1550;-73
2022/05/06 00:17:43;;;;;;;23.83;15.82;;;;;;;23.76;39.48;100072.38;347606;28;1071;-74
2022/05/06 00:17:55;;;;;;;27.05;16.08;;;;;;;23.75;39.18;100065.38;347509;28;1189;-74
2022/05/06 00:18:07;;;;;;;28.38;16.80;;;;;;;23.68;39.29;100069.50;346749;28;1897;-72
2022/05/06 00:18:20;;;;;;;25.48;16.33;;;;;;;23.68;39.43;100061.53;346811;28;1822;-72
2022/05/06 00:18:32;;;;;;;26.17;16.13;;;;;;;23.64;39.56;100065.41;344946;28;1682;-72
2022/05/06 00:18:44;;;;;;;28.75;16.38;;;;;;;23.70;39.66;100068.41;345108;28;1058;-72
2022/05/06 00:18:56;;;;;;;30.55;16.77;;;;;;;23.71;39.60;100070.09;345042;28;1074;-72
2022/05/06 00:19:08;;;;;;;29.42;16.35;;;;;;;23.68;39.39;100066.84;344416;28;1802;-71
2022/05/06 00:19:20;;;;;;;26.25;15.98;;;;;;;23.68;39.35;100070.34;343529;28;1920;-71
2022/05/06 00:19:32;;;;;;;26.02;16.15;;;;;;;23.73;39.34;100062.00;343586;28;1646;-71
2022/05/06 00:19:45;;;;;;;27.83;15.88;;;;;;;23.72;39.25;100070.94;343601;28;1042;-71
2022/05/06 00:19:58;;;;;;;30.08;16.10;;;;;;;23.71;39.31;100069.25;343668;28;1075;-72
2022/05/06 00:20:11;;;;;;;29.98;16.48;;;;;;;23.69;39.53;100066.72;343199;28;1905;-74
2022/05/06 00:20:23;;;;;;;29.02;16.20;;;;;;;23.73;39.25;100062.84;344198;28;1850;-73
2022/05/06 00:20:35;;;;;;;27.13;15.70;;;;;;;23.74;39.29;100066.34;345473;28;1234;-73
2022/05/06 00:20:48;;;;;;;26.08;15.73;;;;;;;23.77;39.43;100068.78;346103;28;1095;-74
2022/05/06 00:21:00;;;;;;;25.58;16.13;;;;;;;23.69;39.27;100060.56;345560;28;2156;-72
2022/05/06 00:21:12;;;;;;;25.98;16.38;;;;;;;23.70;39.26;100064.91;344957;28;1899;-72
2022/05/06 00:21:24;;;;;;;26.73;16.02;;;;;;;23.61;39.43;100058.53;346935;28;1908;-72
2022/05/06 00:21:36;;;;;;;27.70;15.85;;;;;;;23.60;39.69;100061.31;346085;28;1982;-72
2022/05/06 00:21:48;;;;;;;26.00;15.68;;;;;;;23.64;39.66;100060.97;347670;28;1413;-71
2022/05/06 00:22:00;;;;;;;22.92;15.40;;;;;;;23.66;39.28;100066.13;346451;28;1191;-71
2022/05/06 00:22:12;;;;;;;23.95;15.50;;;;;;;23.67;39.68;100062.50;346272;28;2100;-71
2022/05/06 00:22:24;;;;;;;25.40;15.65;;;;;;;23.68;39.36;100057.09;347515;28;1211;-71
2022/05/06 00:22:36;;;;;;;26.40;15.55;;;;;;;23.63;39.78;100059.25;346083;28;1964;-71
2022/05/06 00:22:48;;;;;;;26.00;15.13;;;;;;;23.61;39.42;100058.53;345675;28;1729;-71
2022/05/06 00:23:00;;;;;;;25.67;15.25;;;;;;;23.64;39.53;100062.75;345372;28;1896;-71
2022/05/06 00:23:12;;;;;;;25.75;15.40;;;;;;;23.64;39.65;100062.75;346755;28;1914;-71
2022/05/06 00:23:24;;;;;;;28.67;15.93;;;;;;;23.63;39.67;100061.06;347872;28;1023;-71
2022/05/06 00:23:36;;;;;;;29.08;16.40;;;;;;;23.59;40.01;100060.47;346078;28;1071;-72
2022/05/06 00:23:48;;;;;;;28.63;16.92;;;;;;;23.49;39.93;100060.34;346193;28;1050;-72
2022/05/06 00:24:00;;;;;;;26.55;16.48;;;;;;;23.45;39.87;100064.22;346176;28;1080;-72
2022/05/06 00:24:17;;;;;;;25.75;16.15;;;;;;;23.43;39.75;100060.00;346982;28;1711;-72
2022/05/06 00:24:29;;;;;;;25.13;16.15;;;;;;;23.44;40.19;100065.22;346537;28;1308;-72
2022/05/06 00:24:41;;;;;;;26.08;16.02;;;;;;;23.50;40.00;100062.06;346272;28;1238;-72
2022/05/06 00:24:53;;;;;;;25.65;16.42;;;;;;;23.48;39.83;100064.00;345912;28;1082;-72
2022/05/06 00:25:05;;;;;;;25.10;16.73;;;;;;;23.47;40.05;100067.59;346141;28;2148;-72
2022/05/06 00:25:17;;;;;;;26.48;16.58;;;;;;;23.49;39.78;100059.53;346101;28;1650;-71
2022/05/06 00:25:29;;;;;;;26.75;15.77;;;;;;;23.51;40.04;100058.44;346839;28;1308;-71
2022/05/06 00:25:41;;;;;;;26.90;15.85;;;;;;;23.49;39.85;100064.84;346188;28;1244;-71
2022/05/06 00:25:53;;;;;;;25.65;16.35;;;;;;;23.44;40.40;100061.69;346665;28;1177;-71
2022/05/06 00:26:05;;;;;;;25.27;16.48;;;;;;;23.54;39.71;100059.97;344473;28;1943;-74
2022/05/06 00:26:17;;;;;;;25.25;16.08;;;;;;;23.49;39.96;100060.34;344913;28;1888;-74
2022/05/06 00:26:29;;;;;;;26.52;16.30;;;;;;;23.41;40.06;100060.13;345014;28;1612;-74
2022/05/06 00:26:42;;;;;;;26.55;16.30;;;;;;;23.46;39.95;100063.28;344947;28;1043;-74
2022/05/06 00:26:54;;;;;;;27.33;16.27;;;;;;;23.46;40.18;100065.94;344939;28;1011;-74
2022/05/06 00:27:06;;;;;;;27.02;16.50;;;;;;;23.53;39.64;100061.81;344358;28;1969;-74
2022/05/06 00:27:19;;;;;;;28.17;16.40;;;;;;;23.49;40.17;100063.00;344199;28;1777;-72
2022/05/06 00:27:31;;;;;;;29.55;16.48;;;;;;;23.46;40.18;100065.94;344236;28;1261;-73
2022/05/06 00:27:43;;;;;;;31.33;16.98;;;;;;;23.46;39.81;100060.63;344025;28;1233;-73
2022/05/06 00:27:55;;;;;;;30.35;16.88;;;;;;;23.44;39.94;100061.69;343919;28;1200;-73
2022/05/06 00:28:07;;;;;;;29.13;16.70;;;;;;;23.50;40.05;100067.38;344476;28;2191;-71
2022/05/06 00:28:20;;;;;;;28.60;16.55;;;;;;;23.49;39.71;100065.66;344616;28;1543;-73
2022/05/06 00:28:33;;;;;;;27.83;16.33;;;;;;;23.49;40.05;100065.66;343802;28;1689;-72
2022/05/06 00:28:45;;;;;;;27.77;16.17;;;;;;;23.46;39.90;100065.06;343455;28;1075;-73
2022/05/06 00:28:57;;;;;;;27.60;16.27;;;;;;;23.43;40.02;100055.53;343411;28;1036;-73
2022/05/06 00:29:09;;;;;;;26.80;16.55;;;;;;;23.48;40.04;100058.69;343504;28;1979;-73
2022/05/06 00:29:21;;;;;;;24.92;16.30;;;;;;;23.41;40.28;100065.44;344703;28;1690;-73
2022/05/06 00:29:35;;;;;;;24.02;16.33;;;;;;;23.42;40.06;100067.13;346267;28;1330;-72
2022/05/06 00:29:47;;;;;;;24.05;16.48;;;;;;;23.47;39.88;100062.28;345026;28;1831;-73
2022/05/06 00:29:59;;;;;;;25.17;16.52;;;;;;;23.51;39.99;100063.72;345957;28;2362;-73
2022/05/06 00:30:12;;;;;;;28.58;16.83;;;;;;;23.58;40.05;100057.94;345209;28;2340;-72
2022/05/06 00:30:24;;;;;;;26.85;16.25;;;;;;;23.55;39.93;100063.50;345667;28;1930;-72
2022/05/06 00:30:36;;;;;;;25.25;16.08;;;;;;;23.45;39.98;100064.22;346060;28;1143;-72
2022/05/06 00:30:48;;;;;;;27.58;16.73;;;;;;;23.57;39.63;100062.41;346015;28;1849;-72
2022/05/06 00:31:01;;;;;;;27.52;16.65;;;;;;;23.63;39.58;100063.72;345969;28;1124;-72
2022/05/06 00:31:13;;;;;;;26.60;16.50;;;;;;;23.68;39.84;100066.84;346024;28;1749;-73
2022/05/06 00:31:25;;;;;;;25.35;16.88;;;;;;;23.75;39.44;100059.25;346057;28;1690;-72
2022/05/06 00:31:37;;;;;;;26.75;16.80;;;;;;;23.81;39.33;100069.38;346256;28;1216;-72
2022/05/06 00:31:49;;;;;;;27.00;16.33;;;;;;;23.83;39.20;100056.84;345734;28;2027;-72
2022/05/06 00:32:02;;;;;;;26.60;15.15;;;;;;;23.88;39.40;100065.25;344294;28;1701;-72
2022/05/06 00:32:14;;;;;;;27.02;15.70;;;;;;;23.89;39.46;100064.28;344624;28;2078;-72
2022/05/06 00:32:26;;;;;;;26.23;16.33;;;;;;;23.86;39.44;100054.75;344702;28;1671;-74
2022/05/06 00:32:38;;;;;;;23.55;16.08;;;;;;;23.89;39.10;100059.81;344614;28;2092;-74
2022/05/06 00:32:50;;;;;;;24.40;15.30;;;;;;;23.87;39.31;100059.09;345275;28;1863;-74
2022/05/06 00:33:02;;;;;;;25.42;15.45;;;;;;;23.83;39.40;100056.84;344949;28;1172;-74
2022/05/06 00:33:14;;;;;;;25.33;15.90;;;;;;;23.80;39.48;100063.22;345071;28;1900;-74
2022/05/06 00:33:26;;;;;;;25.60;16.40;;;;;;;23.81;39.62;100059.59;345034;28;2164;-74
2022/05/06 00:33:38;;;;;;;24.98;16.08;;;;;;;23.80;39.59;100062.38;344711;28;1366;-73
2022/05/06 00:33:50;;;;;;;23.83;15.75;;;;;;;23.76;39.39;100061.75;344707;28;1902;-72
2022/05/06 00:34:02;;;;;;;24.55;15.48;;;;;;;23.81;39.24;100058.78;344871;28;1084;-72
2022/05/06 00:34:15;;;;;;;25.27;15.55;;;;;;;23.81;39.67;100059.59;344655;28;1919;-72
2022/05/06 00:34:27;;;;;;;24.90;15.60;;;;;;;23.75;39.53;100056.59;344409;28;1915;-72
2022/05/06 00:34:39;;;;;;;24.60;15.63;;;;;;;23.79;39.43;100058.88;346345;28;1316;-72
2022/05/06 00:34:51;;;;;;;24.60;15.40;;;;;;;23.81;39.75;100059.59;347305;28;1043;-72
2022/05/06 00:35:03;;;;;;;24.02;15.30;;;;;;;23.84;39.52;100058.50;347566;28;1091;-72
2022/05/06 00:35:16;;;;;;;22.88;15.00;;;;;;;23.85;39.25;100053.06;345433;28;1948;-72
2022/05/06 00:35:27;;;;;;;23.15;14.90;;;;;;;23.86;39.32;100057.41;347141;28;1463;-72
2022/05/06 00:35:43;;;;;;;22.90;14.63;;;;;;;23.88;39.44;100062.59;346461;28;1169;-72
2022/05/06 00:36:00;;;;;;;22.63;14.98;;;;;;;23.96;39.24;100060.16;346225;28;1090;-72
2022/05/06 00:36:14;;;;;;;22.65;15.10;;;;;;;24.01;39.23;100054.47;345841;28;1931;-74
2022/05/06 00:36:26;;;;;;;24.30;14.90;;;;;;;24.04;38.91;100059.53;347203;28;2099;-74
2022/05/06 00:36:38;;;;;;;24.98;15.23;;;;;;;24.05;38.88;100061.22;346351;28;1082;-73
2022/05/06 00:36:50;;;;;;;26.40;15.52;;;;;;;24.09;38.92;100063.50;346184;28;1132;-73
2022/05/06 00:37:03;;;;;;;26.05;15.73;;;;;;;24.10;39.09;100054.53;346111;28;2015;-73
2022/05/06 00:37:15;;;;;;;25.38;16.13;;;;;;;24.14;38.87;100055.13;345519;28;1941;-73
2022/05/06 00:37:27;;;;;;;26.67;16.08;;;;;;;24.17;38.70;100060.22;346255;28;1804;-73
2022/05/06 00:37:39;;;;;;;25.35;15.35;;;;;;;24.20;38.82;100059.09;346403;28;2447;-73
2022/05/06 00:37:51;;;;;;;26.42;15.60;;;;;;;24.17;38.61;100054.91;347493;28;1205;-73
2022/05/06 00:38:03;;;;;;;24.90;15.88;;;;;;;24.15;38.67;100054.19;347688;28;1062;-72
2022/05/06 00:38:16;;;;;;;24.73;15.65;;;;;;;24.16;38.72;100053.19;346069;28;1689;-72
2022/05/06 00:38:28;;;;;;;25.85;15.80;;;;;;;24.19;39.18;100058.25;346056;28;1972;-72
2022/05/06 00:38:42;;;;;;;24.58;15.55;;;;;;;24.18;38.62;100061.88;346358;28;1066;-73
2022/05/06 00:38:54;;;;;;;23.48;14.73;;;;;;;24.19;38.86;100058.25;346471;28;1233;-72
2022/05/06 00:39:06;;;;;;;22.50;14.57;;;;;;;24.20;38.99;100061.75;345681;28;1865;-72
2022/05/06 00:39:18;;;;;;;22.67;14.95;;;;;;;24.15;38.94;100051.53;345987;28;1868;-72
2022/05/06 00:39:30;;;;;;;24.27;15.68;;;;;;;24.16;39.15;100058.50;346129;28;1764;-73
2022/05/06 00:39:42;;;;;;;23.77;15.85;;;;;;;24.17;38.92;100056.72;345990;28;1054;-72
2022/05/06 00:39:54;;;;;;;23.15;15.57;;;;;;;24.15;38.59;100054.19;346035;28;2119;-73
2022/05/06 00:40:07;;;;;;;22.70;15.05;;;;;;;24.20;38.86;100059.94;345811;28;1759;-72
2022/05/06 00:40:19;;;;;;;23.23;14.50;;;;;;;24.22;38.83;100055.34;346635;28;1795;-71
2022/05/06 00:40:31;;;;;;;23.42;14.35;;;;;;;24.17;38.70;100051.41;346721;28;1300;-73
2022/05/06 00:40:43;;;;;;;24.20;14.65;;;;;;;24.21;38.67;100050.19;346327;28;2117;-72
2022/05/06 00:40:56;;;;;;;23.45;14.82;;;;;;;24.15;38.67;100056.84;346294;28;1843;-72
2022/05/06 00:41:09;;;;;;;23.73;15.05;;;;;;;24.15;38.82;100054.19;345678;28;2090;-71
2022/05/06 00:41:21;;;;;;;23.05;14.75;;;;;;;24.15;39.14;100061.28;345577;28;1859;-73
2022/05/06 00:41:34;;;;;;;22.75;14.85;;;;;;;24.15;38.88;100062.16;345073;28;1186;-73
2022/05/06 00:41:47;;;;;;;21.02;15.00;;;;;;;24.18;38.80;100055.72;345012;28;1031;-72
2022/05/06 00:41:59;;;;;;;20.58;14.63;;;;;;;24.21;38.80;100058.16;344970;28;1087;-73
2022/05/06 00:42:11;;;;;;;21.67;14.27;;;;;;;24.23;38.60;100056.19;344980;28;1901;-72
2022/05/06 00:42:23;;;;;;;23.05;14.40;;;;;;;24.26;38.41;100059.41;345171;28;1957;-72
2022/05/06 00:42:35;;;;;;;23.25;14.52;;;;;;;24.17;38.79;100054.91;345351;28;1088;-71
2022/05/06 00:42:50;;;;;;;23.85;15.10;;;;;;;24.15;38.68;100055.97;343898;28;1867;-71
2022/05/06 00:43:02;;;;;;;24.15;16.13;;;;;;;24.10;38.73;100057.19;344715;28;1712;-71
2022/05/06 00:43:14;;;;;;;25.92;16.40;;;;;;;24.11;38.49;100060.72;345406;28;2001;-71
2022/05/06 00:43:27;;;;;;;25.83;15.90;;;;;;;24.12;38.46;100062.38;345054;28;1343;-71
2022/05/06 00:43:40;;;;;;;24.58;15.50;;;;;;;24.10;38.47;100059.00;344941;28;1298;-71
2022/05/06 00:43:52;;;;;;;23.25;15.80;;;;;;;24.11;38.77;100055.41;344842;28;1119;-71
2022/05/06 00:44:06;;;;;;;25.05;16.08;;;;;;;24.11;38.68;100050.09;344554;28;1140;-71
2022/05/06 00:44:18;;;;;;;25.40;16.25;;;;;;;24.09;38.85;100055.53;343843;28;1678;-71
2022/05/06 00:44:30;;;;;;;26.15;16.17;;;;;;;24.05;38.58;100061.22;344588;28;1174;-71
2022/05/06 00:44:42;;;;;;;27.27;16.30;;;;;;;23.85;38.97;100055.72;344925;28;1093;-71
2022/05/06 00:44:54;;;;;;;25.75;15.52;;;;;;;23.92;38.90;100056.94;344917;28;1253;-71
2022/05/06 00:45:07;;;;;;;26.13;16.02;;;;;;;23.88;38.90;100055.47;344756;28;1912;-71
2022/05/06 00:45:19;;;;;;;24.15;15.70;;;;;;;23.87;39.02;100061.75;343312;28;1740;-71
2022/05/06 00:45:43;;;;;;;24.63;16.02;;;;;;;23.80;39.07;100059.72;344517;28;1297;-71
2022/05/06 00:45:56;;;;;;;26.05;15.95;;;;;;;23.70;39.52;100062.25;344607;28;2070;-71
2022/05/06 00:46:13;;;;;;;25.98;15.65;;;;;;;23.66;39.33;100055.50;345578;28;1055;-71
2022/05/06 00:46:26;;;;;;;26.23;15.73;;;;;;;23.69;39.77;100049.97;346110;28;1403;-71
2022/05/06 00:46:38;;;;;;;23.98;15.32;;;;;;;23.69;39.40;100056.09;347285;28;1062;-71
2022/05/06 00:46:52;;;;;;;23.38;15.60;;;;;;;23.66;39.43;100056.38;347448;28;1030;-71
2022/05/06 00:47:22;;;;;;;24.75;16.25;;;;;;;23.59;39.87;100049.84;348838;22;1784;-71
2022/05/06 00:47:34;;;;;;;23.33;15.70;;;;;;;23.40;39.92;100055.81;347291;28;1331;-71
2022/05/06 00:47:46;;;;;;;23.90;15.82;;;;;;;23.40;40.37;100053.16;347302;28;1769;-74
2022/05/06 00:47:59;;;;;;;23.83;15.48;;;;;;;23.41;39.98;100046.88;347331;28;1655;-74
2022/05/06 00:48:11;;;;;;;24.92;15.52;;;;;;;23.48;39.90;100057.81;347507;28;1054;-74
2022/05/06 00:48:24;;;;;;;25.70;16.08;;;;;;;23.42;39.98;100053.88;347694;28;1054;-72
2022/05/06 00:48:37;;;;;;;27.45;16.52;;;;;;;23.25;40.51;100052.56;347739;28;1078;-73
2022/05/06 00:48:49;;;;;;;25.17;16.20;;;;;;;23.27;40.27;100052.44;347568;28;1205;-72
2022/05/06 00:49:02;;;;;;;25.17;16.35;;;;;;;23.33;40.22;100054.59;347674;28;1201;-73
2022/05/06 00:49:14;;;;;;;25.33;16.48;;;;;;;23.39;40.00;100053.28;346795;28;2236;-73
2022/05/06 00:49:27;;;;;;;25.67;17.13;;;;;;;23.42;40.06;100050.34;347413;28;2029;-72
2022/05/06 00:49:39;;;;;;;26.23;16.83;;;;;;;23.49;39.73;100054.22;347596;28;1113;-72
2022/05/06 00:49:52;;;;;;;26.15;16.05;;;;;;;23.49;39.79;100049.75;347494;28;1062;-72
2022/05/06 00:50:05;;;;;;;24.77;15.80;;;;;;;23.55;39.96;100058.19;346839;28;2076;-72
2022/05/06 00:50:17;;;;;;;27.98;16.60;;;;;;;23.61;39.69;100052.41;346739;28;1810;-74
2022/05/06 00:50:32;;;;;;;28.45;16.80;;;;;;;23.64;39.66;100062.75;347513;28;1476;-74
2022/05/06 00:50:45;;;;;;;26.75;15.98;;;;;;;23.68;39.71;100058.88;347485;28;1223;-74
2022/05/06 00:50:58;;;;;;;26.42;15.65;;;;;;;23.72;39.90;100055.00;347340;28;1027;-73
2022/05/06 00:51:11;;;;;;;25.10;16.17;;;;;;;23.76;39.68;100055.59;346523;28;1854;-74
2022/05/06 00:51:24;;;;;;;22.95;15.88;;;;;;;23.77;39.56;100060.81;347077;28;1629;-72
2022/05/06 00:51:38;;;;;;;24.38;15.43;;;;;;;23.79;39.88;100058.88;347312;28;1047;-72
2022/05/06 00:51:53;;;;;;;25.73;15.73;;;;;;;23.83;39.66;100062.97;347785;28;1098;-72
2022/05/06 00:52:06;;;;;;;27.17;16.13;;;;;;;23.86;39.60;100061.88;347641;28;1023;-72
2022/05/06 00:52:18;;;;;;;25.95;16.00;;;;;;;23.87;39.50;100061.75;347384;28;1677;-72
2022/05/06 00:52:30;;;;;;;26.63;16.25;;;;;;;23.88;39.13;100059.94;347395;28;1293;-72
2022/05/06 00:52:42;;;;;;;25.23;16.27;;;;;;;23.92;39.28;100056.94;347606;28;1104;-73
2022/05/06 00:52:54;;;;;;;26.40;16.52;;;;;;;23.96;39.53;100061.97;347965;28;1156;-72
2022/05/06 00:53:07;;;;;;;25.35;16.48;;;;;;;23.98;39.66;100060.88;347765;28;1959;-72
2022/05/06 00:53:19;;;;;;;26.23;16.58;;;;;;;23.99;39.22;100064.38;347395;28;1874;-72
2022/05/06 00:53:31;;;;;;;27.63;16.40;;;;;;;23.98;39.36;100065.34;347222;28;1666;-71
2022/05/06 00:53:44;;;;;;;28.70;16.42;;;;;;;24.00;39.12;100063.41;347344;28;1977;-71
2022/05/06 00:53:56;;;;;;;28.52;16.50;;;;;;;24.02;39.46;100062.31;347495;28;1220;-71
2022/05/06 00:54:08;;;;;;;25.67;16.40;;;;;;;24.07;39.05;100068.09;347354;28;1798;-72
2022/05/06 00:54:22;;;;;;;26.17;16.35;;;;;;;24.08;39.41;100063.63;347306;28;1563;-72
2022/05/06 00:54:37;;;;;;;26.42;16.73;;;;;;;24.09;39.13;100065.31;347619;28;1493;-73
2022/05/06 00:54:51;;;;;;;24.88;16.13;;;;;;;24.12;39.22;100062.38;347466;28;1061;-73
2022/05/06 00:55:05;;;;;;;26.90;15.57;;;;;;;24.15;38.83;100062.16;347803;28;1124;-74
2022/05/06 00:55:17;;;;;;;26.92;15.55;;;;;;;24.18;39.09;100061.88;346584;28;1665;-72
2022/05/06 00:55:29;;;;;;;25.65;16.08;;;;;;;24.18;39.01;100059.22;347470;28;1493;-72
2022/05/06 00:55:42;;;;;;;25.73;16.60;;;;;;;24.17;38.95;100054.06;347422;28;2044;-72
2022/05/06 00:55:56;;;;;;;25.95;16.65;;;;;;;24.12;38.89;100057.91;347770;28;1168;-73
2022/05/06 00:56:11;;;;;;;24.45;15.43;;;;;;;24.02;38.81;100054.34;347233;28;1941;-71
2022/05/06 00:56:26;;;;;;;24.02;15.77;;;;;;;23.89;39.02;100056.34;346730;28;2255;-74
2022/05/06 00:56:38;;;;;;;26.58;16.60;;;;;;;23.75;39.41;100054.78;347600;28;1115;-73
2022/05/06 00:56:52;;;;;;;26.48;16.48;;;;;;;23.78;39.56;100054.53;346193;28;1855;-74
2022/05/06 00:57:07;;;;;;;25.52;16.65;;;;;;;23.76;39.66;100056.44;346439;28;1803;-72
2022/05/06 00:57:20;;;;;;;25.58;15.88;;;;;;;23.69;39.34;100055.28;345163;28;1854;-72
2022/05/06 00:57:32;;;;;;;24.40;15.63;;;;;;;23.64;39.65;100050.34;345886;28;1322;-72
2022/05/06 00:57:45;;;;;;;24.92;15.50;;;;;;;23.45;40.18;100053.63;346279;28;1677;-72
2022/05/06 00:57:57;;;;;;;25.77;15.52;;;;;;;23.20;40.67;100054.75;346228;28;1078;-73
2022/05/06 00:58:09;;;;;;;27.00;15.95;;;;;;;23.23;40.38;100049.19;345186;28;1994;-74
2022/05/06 00:58:23;;;;;;;26.15;16.23;;;;;;;23.16;40.63;100049.78;345152;28;1722;-73
2022/05/06 00:58:35;;;;;;;25.50;16.20;;;;;;;23.23;40.61;100053.66;346108;28;1050;-72
2022/05/06 00:58:47;;;;;;;25.02;16.00;;;;;;;23.21;40.50;100056.41;346169;28;1174;-71